createdAt,value
2018-05-08T00:01:43.385Z,3.33
2018-05-08T00:04:10.520Z,3.93
2018-05-08T00:06:36.918Z,3.67
2018-05-08T00:09:03.380Z,3.77
2018-05-08T00:11:29.773Z,4.10
2018-05-08T00:13:56.149Z,3.83
2018-05-08T00:16:22.546Z,4.30
2018-05-08T00:18:48.930Z,3.60
2018-05-08T00:21:16.081Z,3.50
2018-05-08T00:23:43.207Z,3.07
2018-05-08T00:26:09.604Z,3.27
2018-05-08T00:28:35.987Z,2.80
2018-05-08T00:31:03.111Z,3.53
2018-05-08T00:33:29.495Z,3.10
2018-05-08T00:35:55.880Z,3.37
2018-05-08T00:38:22.276Z,3.03
2018-05-08T00:40:48.659Z,3.47
2018-05-08T00:43:15.046Z,3.30
2018-05-08T00:45:41.462Z,3.67
2018-05-08T00:48:07.864Z,3.20
2018-05-08T00:50:35.018Z,4.07
2018-05-08T00:53:02.156Z,2.83
2018-05-08T00:55:29.283Z,3.17
2018-05-08T00:57:55.696Z,4.03
2018-05-08T01:00:22.142Z,3.43
2018-05-08T01:02:48.510Z,3.70
2018-05-08T01:05:15.636Z,3.23
2018-05-08T01:07:43.502Z,3.90
2018-05-08T01:10:09.895Z,3.50
2018-05-08T01:12:36.320Z,3.83
2018-05-08T01:15:02.754Z,3.77
2018-05-08T01:17:29.148Z,3.23
2018-05-08T01:19:56.294Z,4.30
2018-05-08T01:22:23.460Z,4.30
2018-05-08T01:24:50.607Z,3.60
2018-05-08T01:27:17.762Z,3.57
2018-05-08T01:29:44.895Z,4.07
2018-05-08T01:32:11.284Z,3.97
2018-05-08T01:34:37.663Z,3.40
2018-05-08T01:37:04.094Z,3.70
2018-05-08T01:39:30.489Z,3.87
2018-05-08T01:41:56.907Z,4.00
2018-05-08T01:44:23.320Z,4.50
2018-05-08T01:46:51.292Z,3.33
2018-05-08T01:49:17.693Z,3.50
2018-05-08T01:51:44.089Z,3.60
2018-05-08T01:54:10.500Z,3.20
2018-05-08T01:56:36.903Z,3.20
2018-05-08T01:59:04.038Z,3.47
2018-05-08T02:01:31.250Z,3.90
2018-05-08T02:03:57.651Z,3.43
2018-05-08T02:06:24.043Z,3.50
2018-05-08T02:08:51.906Z,3.57
2018-05-08T02:11:18.386Z,3.43
2018-05-08T02:13:44.792Z,9.43
2018-05-08T02:16:11.939Z,7.70
2018-05-08T02:18:38.338Z,4.73
2018-05-08T02:21:04.745Z,4.10
2018-05-08T02:23:31.160Z,4.30
2018-05-08T02:25:57.580Z,3.33
2018-05-08T02:28:23.978Z,4.23
2018-05-08T02:30:50.374Z,4.83
2018-05-08T02:33:16.769Z,3.90
2018-05-08T02:35:43.934Z,3.47
2018-05-08T02:38:11.071Z,4.00
2018-05-08T02:40:37.470Z,5.23
2018-05-08T02:43:03.865Z,5.20
2018-05-08T02:45:30.525Z,5.13
2018-05-08T02:47:56.928Z,4.93
2018-05-08T02:50:23.319Z,3.80
2018-05-08T02:52:51.233Z,4.03
2018-05-08T02:55:17.778Z,5.60
2018-05-08T02:57:44.169Z,5.33
2018-05-08T03:00:10.569Z,5.30
2018-05-08T03:02:36.956Z,6.40
2018-05-08T03:05:04.114Z,5.80
2018-05-08T03:07:30.547Z,5.43
2018-05-08T03:09:56.932Z,4.43
2018-05-08T03:12:23.309Z,5.27
2018-05-08T03:14:49.688Z,4.50
2018-05-08T03:17:16.079Z,4.60
2018-05-08T03:19:42.486Z,12.57
2018-05-08T03:22:09.640Z,5.43
2018-05-08T03:24:36.049Z,5.00
2018-05-08T03:27:03.931Z,5.20
2018-05-08T03:29:31.080Z,4.70
2018-05-08T03:31:58.224Z,5.73
2018-05-08T03:34:25.366Z,6.03
2018-05-08T03:36:52.501Z,4.93
2018-05-08T03:39:18.902Z,4.33
2018-05-08T03:41:45.294Z,4.60
2018-05-08T03:44:12.502Z,3.83
2018-05-08T03:46:38.892Z,4.77
2018-05-08T03:49:05.289Z,5.00
2018-05-08T03:51:33.163Z,4.30
2018-05-08T03:53:59.556Z,4.00
2018-05-08T03:56:25.939Z,5.07
2018-05-08T03:58:53.110Z,3.73
2018-05-08T04:01:31.966Z,4.60
2018-05-08T04:04:10.752Z,4.17
2018-05-08T04:07:01.245Z,4.20
2018-05-08T04:09:27.678Z,4.37
2018-05-08T04:11:54.833Z,4.77
2018-05-08T04:14:21.963Z,5.57
2018-05-08T04:16:49.102Z,4.57
2018-05-08T04:19:15.485Z,5.17
2018-05-08T04:21:41.891Z,8.10
2018-05-08T04:24:08.306Z,7.50
2018-05-08T04:26:35.511Z,4.70
2018-05-08T04:29:01.932Z,4.87
2018-05-08T04:31:28.319Z,4.20
2018-05-08T04:33:54.710Z,4.47
2018-05-08T04:36:21.114Z,3.70
2018-05-08T04:38:47.517Z,5.13
2018-05-08T04:41:13.912Z,4.87
2018-05-08T04:43:40.466Z,5.80
2018-05-08T04:46:06.850Z,5.97
2018-05-08T04:48:33.231Z,5.10
2018-05-08T04:50:59.604Z,4.87
2018-05-08T04:53:26.729Z,5.63
2018-05-08T04:55:53.126Z,5.07
2018-05-08T04:58:19.498Z,5.60
2018-05-08T05:00:46.614Z,5.20
2018-05-08T05:03:13.065Z,6.03
2018-05-08T05:05:39.467Z,8.20
2018-05-08T05:08:05.875Z,6.40
2018-05-08T05:10:32.282Z,5.40
2018-05-08T05:12:59.410Z,5.40
2018-05-08T05:15:25.806Z,5.37
2018-05-08T05:17:52.230Z,6.10
2018-05-08T05:20:18.622Z,5.50
2018-05-08T05:22:45.818Z,8.00
2018-05-08T05:25:12.208Z,5.77
2018-05-08T05:27:39.343Z,6.90
2018-05-08T05:30:05.769Z,7.47
2018-05-08T05:32:32.165Z,6.53
2018-05-08T05:34:58.558Z,6.27
2018-05-08T05:37:25.743Z,5.93
2018-05-08T05:39:52.148Z,5.60
2018-05-08T05:42:19.314Z,5.50
2018-05-08T05:44:45.721Z,5.70
2018-05-08T05:47:12.883Z,5.87
2018-05-08T05:49:40.046Z,5.33
2018-05-08T05:52:06.428Z,4.23
2018-05-08T05:54:34.310Z,5.17
2018-05-08T05:57:00.702Z,4.47
2018-05-08T05:59:27.117Z,4.00
2018-05-08T06:01:53.506Z,4.87
2018-05-08T06:04:19.901Z,4.70
2018-05-08T06:06:46.307Z,4.30
2018-05-08T06:09:12.685Z,4.43
2018-05-08T06:11:39.103Z,4.80
2018-05-08T06:14:05.503Z,3.97
2018-05-08T06:16:31.948Z,4.03
2018-05-08T06:18:58.381Z,4.50
2018-05-08T06:21:24.779Z,3.90
2018-05-08T06:23:51.914Z,4.00
2018-05-08T06:26:18.319Z,4.00
2018-05-08T06:28:44.716Z,3.97
2018-05-08T06:31:11.117Z,4.47
2018-05-08T06:33:38.259Z,4.13
2018-05-08T06:36:06.152Z,4.00
2018-05-08T06:38:33.304Z,4.13
2018-05-08T06:40:59.755Z,4.43
2018-05-08T06:43:26.176Z,3.90
2018-05-08T06:45:52.596Z,4.07
2018-05-08T06:48:19.753Z,5.57
2018-05-08T06:50:46.153Z,4.93
2018-05-08T06:53:12.543Z,6.00
2018-05-08T06:55:38.936Z,4.80
2018-05-08T06:58:06.075Z,4.33
2018-05-08T07:00:32.499Z,5.00
2018-05-08T07:02:58.908Z,4.37
2018-05-08T07:05:25.316Z,4.33
2018-05-08T07:07:51.719Z,4.37
2018-05-08T07:10:18.979Z,4.00
2018-05-08T07:12:46.128Z,3.97
2018-05-08T07:15:13.282Z,4.33
2018-05-08T07:17:40.526Z,4.77
2018-05-08T07:20:07.690Z,4.20
2018-05-08T07:22:34.859Z,4.27
2018-05-08T07:25:01.264Z,4.30
2018-05-08T07:27:28.400Z,3.90
2018-05-08T07:29:54.787Z,3.30
2018-05-08T07:32:21.184Z,3.80
2018-05-08T07:34:48.347Z,4.00
2018-05-08T07:37:14.748Z,3.77
2018-05-08T07:39:41.884Z,5.37
2018-05-08T07:42:08.296Z,5.10
2018-05-08T07:44:34.710Z,4.23
2018-05-08T07:47:01.112Z,4.23
2018-05-08T07:49:28.267Z,4.40
2018-05-08T07:51:54.713Z,5.37
2018-05-08T07:54:21.103Z,4.03
2018-05-08T07:56:48.997Z,4.70
2018-05-08T07:59:15.416Z,4.30
2018-05-08T08:01:42.572Z,4.10
2018-05-08T08:04:09.762Z,3.50
2018-05-08T08:06:36.181Z,3.80
2018-05-08T08:09:02.656Z,4.03
2018-05-08T08:11:29.088Z,4.60
2018-05-08T08:13:55.496Z,4.40
2018-05-08T08:16:21.912Z,4.23
2018-05-08T08:18:48.325Z,3.77
2018-05-08T08:21:15.530Z,3.80
2018-05-08T08:23:41.975Z,4.20
2018-05-08T08:26:08.362Z,4.50
2018-05-08T08:28:34.756Z,4.00
2018-05-08T08:31:01.943Z,4.43
2018-05-08T08:33:28.343Z,4.73
2018-05-08T08:35:55.471Z,5.00
2018-05-08T08:38:21.861Z,4.10
2018-05-08T08:40:48.330Z,4.80
2018-05-08T08:43:15.425Z,4.70
2018-05-08T08:45:42.589Z,4.13
2018-05-08T08:48:09.042Z,4.17
2018-05-08T08:50:35.450Z,4.20
2018-05-08T08:53:01.864Z,3.63
2018-05-08T08:55:29.046Z,4.70
2018-05-08T08:57:55.447Z,4.03
2018-05-08T09:00:22.628Z,4.53
2018-05-08T09:02:49.043Z,4.43
2018-05-08T09:05:16.235Z,4.47
2018-05-08T09:07:42.647Z,4.23
2018-05-08T09:10:09.043Z,4.27
2018-05-08T09:12:35.450Z,4.00
2018-05-08T09:15:01.845Z,4.60
2018-05-08T09:17:28.253Z,3.50
2018-05-08T09:19:55.431Z,4.00
2018-05-08T09:22:21.828Z,3.90
2018-05-08T09:24:48.961Z,3.67
2018-05-08T09:27:16.862Z,4.30
2018-05-08T09:29:43.275Z,4.70
2018-05-08T09:32:10.414Z,5.13
2018-05-08T09:34:38.270Z,5.47
2018-05-08T09:37:04.703Z,5.70
2018-05-08T09:39:31.130Z,4.23
2018-05-08T09:41:57.611Z,4.57
2018-05-08T09:44:24.745Z,4.00
2018-05-08T09:46:51.958Z,4.87
2018-05-08T09:49:18.349Z,4.87
2018-05-08T09:51:45.459Z,5.37
2018-05-08T09:54:11.935Z,3.73
2018-05-08T09:56:38.263Z,5.23
2018-05-08T09:59:04.702Z,4.47
2018-05-08T10:01:31.099Z,5.20
2018-05-08T10:03:58.986Z,4.90
2018-05-08T10:06:26.225Z,4.70
2018-05-08T10:08:52.608Z,4.30
2018-05-08T10:11:19.012Z,4.40
2018-05-08T10:13:46.131Z,4.47
2018-05-08T10:16:12.543Z,5.03
2018-05-08T10:18:38.943Z,4.90
2018-05-08T10:21:05.324Z,3.80
2018-05-08T10:23:31.731Z,5.20
2018-05-08T10:25:58.142Z,4.30
2018-05-08T10:28:24.571Z,4.50
2018-05-08T10:30:51.050Z,5.43
2018-05-08T10:33:17.448Z,4.70
2018-05-08T10:35:43.884Z,4.97
2018-05-08T10:38:10.301Z,4.63
2018-05-08T10:40:36.728Z,4.63
2018-05-08T10:43:03.928Z,4.67
2018-05-08T10:45:30.387Z,4.50
2018-05-08T10:47:56.796Z,4.67
2018-05-08T10:50:23.194Z,5.20
2018-05-08T10:52:49.625Z,4.37
2018-05-08T10:55:16.034Z,4.53
2018-05-08T10:57:43.221Z,4.53
2018-05-08T11:00:09.641Z,4.00
2018-05-08T11:02:36.080Z,4.87
2018-05-08T11:05:03.124Z,4.73
2018-05-08T11:07:29.530Z,3.80
2018-05-08T11:09:56.681Z,4.20
2018-05-08T11:12:23.878Z,4.67
2018-05-08T11:14:50.249Z,3.90
2018-05-08T11:17:17.408Z,4.20
2018-05-08T11:19:44.610Z,4.67
2018-05-08T11:22:11.849Z,4.40
2018-05-08T11:24:38.269Z,4.10
2018-05-08T11:27:04.665Z,5.57
2018-05-08T11:29:31.807Z,5.07
2018-05-08T11:31:58.198Z,4.70
2018-05-08T11:34:24.637Z,5.20
2018-05-08T11:36:51.070Z,4.63
2018-05-08T11:39:17.521Z,4.23
2018-05-08T11:41:43.924Z,4.77
2018-05-08T11:44:10.338Z,4.23
2018-05-08T11:46:37.516Z,4.10
2018-05-08T11:49:03.939Z,4.53
2018-05-08T11:51:30.369Z,4.80
2018-05-08T11:53:56.782Z,4.60
2018-05-08T11:56:23.953Z,4.30
2018-05-08T11:58:50.356Z,4.30
2018-05-08T12:01:17.544Z,4.77
2018-05-08T12:03:43.970Z,4.00
2018-05-08T12:06:10.398Z,4.70
2018-05-08T12:08:36.834Z,4.33
2018-05-08T12:11:03.297Z,4.00
2018-05-08T12:13:29.701Z,4.77
2018-05-08T12:15:56.104Z,3.47
2018-05-08T12:18:22.496Z,3.60
2018-05-08T12:20:48.887Z,3.70
2018-05-08T12:23:16.031Z,3.90
2018-05-08T12:25:43.240Z,4.23
2018-05-08T12:28:09.669Z,4.57
2018-05-08T12:30:36.168Z,4.53
2018-05-08T12:33:02.518Z,5.83
2018-05-08T12:35:28.928Z,4.07
2018-05-08T12:37:55.302Z,4.13
2018-05-08T12:40:21.717Z,4.30
2018-05-08T12:42:48.135Z,4.23
2018-05-08T12:45:14.571Z,3.80
2018-05-08T12:47:41.023Z,4.80
2018-05-08T12:50:07.444Z,4.90
2018-05-08T12:52:33.856Z,3.93
2018-05-08T12:55:00.238Z,5.20
2018-05-08T12:57:26.645Z,4.33
2018-05-08T12:59:53.068Z,3.73
2018-05-08T13:02:19.453Z,4.30
2018-05-08T13:04:47.347Z,4.50
2018-05-08T13:07:14.489Z,4.20
2018-05-08T13:09:40.905Z,3.83
2018-05-08T13:12:08.033Z,4.60
2018-05-08T13:14:34.432Z,4.60
2018-05-08T13:17:00.821Z,4.50
2018-05-08T13:19:27.263Z,4.50
2018-05-08T13:21:54.395Z,6.33
2018-05-08T13:24:20.958Z,5.13
2018-05-08T13:26:47.217Z,4.77
2018-05-08T13:29:13.687Z,4.20
2018-05-08T13:31:40.834Z,4.43
2018-05-08T13:34:07.228Z,5.10
2018-05-08T13:36:33.652Z,4.37
2018-05-08T13:39:00.043Z,5.20
2018-05-08T13:41:26.459Z,4.70
2018-05-08T13:43:52.881Z,4.77
2018-05-08T13:46:19.276Z,4.93
2018-05-08T13:48:46.414Z,4.67
2018-05-08T13:51:13.553Z,4.63
2018-05-08T13:53:39.976Z,4.63
2018-05-08T13:56:07.134Z,4.17
2018-05-08T13:58:33.553Z,4.20
2018-05-08T14:01:00.065Z,3.60
2018-05-08T14:03:26.473Z,4.37
2018-05-08T14:05:52.934Z,3.70
2018-05-08T14:08:19.335Z,4.03
2018-05-08T14:10:47.523Z,4.90
2018-05-08T14:13:13.915Z,3.77
2018-05-08T14:15:40.321Z,4.37
2018-05-08T14:18:06.805Z,4.23
2018-05-08T14:20:33.226Z,3.93
2018-05-08T14:23:00.368Z,3.83
2018-05-08T14:25:27.824Z,3.83
2018-05-08T14:27:54.195Z,4.30
2018-05-08T14:30:20.595Z,3.90
2018-05-08T14:32:47.038Z,4.13
2018-05-08T14:35:14.171Z,3.97
2018-05-08T14:37:46.481Z,3.80
2018-05-08T14:40:13.886Z,4.60
2018-05-08T14:42:40.270Z,6.47
2018-05-08T14:45:06.705Z,6.17
2018-05-08T14:47:33.113Z,6.57
2018-05-08T14:50:00.261Z,5.57
2018-05-08T14:52:27.459Z,6.23
2018-05-08T14:54:54.139Z,6.00
2018-05-08T14:57:21.304Z,6.60
2018-05-08T14:59:48.440Z,6.77
2018-05-08T15:02:16.310Z,11.20
2018-05-08T15:04:43.443Z,9.70
2018-05-08T15:07:10.587Z,9.00
2018-05-08T15:09:38.476Z,9.47
2018-05-08T15:12:05.612Z,8.30
2018-05-08T15:14:32.014Z,8.67
2018-05-08T15:16:58.409Z,6.70
2018-05-08T15:19:25.548Z,8.80
2018-05-08T15:21:52.078Z,6.80
2018-05-08T15:24:19.168Z,7.90
2018-05-08T15:26:45.590Z,7.40
2018-05-08T15:29:12.075Z,9.33
2018-05-08T15:31:38.461Z,13.40
2018-05-08T15:34:04.929Z,7.70
2018-05-08T15:36:31.378Z,7.70
2018-05-08T15:38:57.803Z,7.70
2018-05-08T15:41:24.217Z,8.40
2018-05-08T15:43:50.622Z,7.87
2018-05-08T15:46:17.063Z,8.17
2018-05-08T15:48:43.517Z,6.73
2018-05-08T15:51:09.990Z,9.27
2018-05-08T15:53:37.161Z,11.50
2018-05-08T15:56:03.564Z,7.43
2018-05-08T15:58:29.987Z,9.43
2018-05-08T16:00:56.404Z,7.40
2018-05-08T16:03:22.844Z,7.90
2018-05-08T16:05:50.772Z,7.50
2018-05-08T16:08:17.236Z,6.27
2018-05-08T16:10:43.815Z,8.23
2018-05-08T16:13:10.311Z,8.37
2018-05-08T16:15:37.552Z,8.13
2018-05-08T16:18:04.045Z,7.43
2018-05-08T16:20:30.486Z,8.13
2018-05-08T16:22:56.945Z,7.77
2018-05-08T16:25:23.409Z,7.60
2018-05-08T16:27:49.894Z,7.33
2018-05-08T16:30:16.458Z,7.83
2018-05-08T16:32:43.592Z,7.80
2018-05-08T16:35:10.099Z,8.10
2018-05-08T16:37:36.536Z,7.77
2018-05-08T16:40:03.730Z,7.70
2018-05-08T16:42:30.174Z,8.20
2018-05-08T16:44:57.184Z,7.80
2018-05-08T16:47:23.582Z,7.67
2018-05-08T16:49:50.711Z,8.00
2018-05-08T16:52:17.180Z,7.37
2018-05-08T16:54:44.320Z,7.40
2018-05-08T16:57:11.484Z,7.10
2018-05-08T16:59:38.652Z,6.87
2018-05-08T17:02:05.053Z,6.93
2018-05-08T17:04:32.237Z,7.60
2018-05-08T17:06:58.664Z,6.67
2018-05-08T17:09:25.951Z,6.50
2018-05-08T17:11:52.344Z,6.50
2018-05-08T17:14:18.741Z,7.27
2018-05-08T17:16:45.138Z,6.40
2018-05-08T17:19:11.612Z,6.20
2018-05-08T17:21:37.983Z,6.50
2018-05-08T17:24:04.419Z,6.30
2018-05-08T17:26:31.781Z,6.27
2018-05-08T17:28:58.172Z,5.80
2018-05-08T17:31:24.560Z,6.20
2018-05-08T17:33:51.041Z,6.03
2018-05-08T17:36:18.204Z,5.70
2018-05-08T17:38:45.374Z,5.73
2018-05-08T17:41:11.811Z,5.33
2018-05-08T17:43:38.240Z,5.37
2018-05-08T17:46:04.644Z,5.40
2018-05-08T17:48:31.801Z,6.50
2018-05-08T17:50:58.941Z,5.40
2018-05-08T17:53:26.086Z,5.73
2018-05-08T17:55:53.850Z,5.80
2018-05-08T17:58:20.243Z,5.50
2018-05-08T18:00:46.663Z,5.80
2018-05-08T18:03:13.068Z,5.87
2018-05-08T18:05:40.207Z,6.03
2018-05-08T18:08:07.397Z,6.37
2018-05-08T18:10:33.821Z,5.20
2018-05-08T18:13:00.336Z,5.90
2018-05-08T18:15:26.981Z,5.80
2018-05-08T18:17:53.804Z,5.90
2018-05-08T18:20:20.197Z,6.03
2018-05-08T18:22:46.666Z,6.53
2018-05-08T18:25:13.808Z,6.90
2018-05-08T18:27:41.712Z,7.10
2018-05-08T18:30:08.135Z,7.10
2018-05-08T18:32:35.281Z,7.57
2018-05-08T18:35:02.482Z,7.30
2018-05-08T18:37:28.893Z,7.50
2018-05-08T18:39:55.296Z,8.97
2018-05-08T18:42:21.878Z,9.37
2018-05-08T18:44:48.373Z,10.50
2018-05-08T18:47:14.809Z,9.33
2018-05-08T18:49:41.327Z,8.63
2018-05-08T18:52:07.676Z,9.13
2018-05-08T18:54:34.071Z,10.37
2018-05-08T18:57:00.552Z,9.80
2018-05-08T18:59:26.949Z,7.70
2018-05-08T19:01:53.355Z,7.53
2018-05-08T19:04:19.758Z,6.23
2018-05-08T19:06:46.208Z,6.23
2018-05-08T19:09:13.306Z,5.83
2018-05-08T19:11:42.711Z,7.33
2018-05-08T19:14:09.886Z,5.83
2018-05-08T19:16:36.307Z,7.80
2018-05-08T19:19:08.910Z,6.40
2018-05-08T19:21:35.299Z,7.40
2018-05-08T19:24:08.648Z,7.30
2018-05-08T19:26:35.130Z,7.10
2018-05-08T19:29:07.619Z,7.20
2018-05-08T19:31:34.786Z,8.50
2018-05-08T19:34:01.226Z,10.20
2018-05-08T19:36:33.803Z,10.50
2018-05-08T19:39:00.291Z,12.90
2018-05-08T19:41:26.666Z,13.37
2018-05-08T19:43:53.094Z,13.07
2018-05-08T19:46:19.515Z,11.70
2018-05-08T19:48:46.678Z,11.53
2018-05-08T19:51:14.412Z,10.90
2018-05-08T19:53:41.604Z,9.27
2018-05-08T19:56:08.815Z,9.67
2018-05-08T19:58:35.210Z,8.93
2018-05-08T20:01:01.720Z,9.20
2018-05-08T20:03:28.104Z,9.40
2018-05-08T20:05:54.508Z,9.30
2018-05-08T20:08:20.912Z,9.80
2018-05-08T20:10:47.306Z,9.40
2018-05-08T20:13:13.734Z,10.37
2018-05-08T20:15:40.127Z,10.20
2018-05-08T20:18:06.526Z,11.20
2018-05-08T20:20:34.648Z,10.73
2018-05-08T20:23:05.111Z,10.37
2018-05-08T20:25:32.559Z,10.53
2018-05-08T20:28:00.984Z,10.83
2018-05-08T20:30:29.838Z,11.60
2018-05-08T20:32:56.407Z,10.90
2018-05-08T20:35:24.608Z,13.30
2018-05-08T20:37:51.992Z,11.30
2018-05-08T20:40:22.294Z,11.57
2018-05-08T20:42:50.995Z,12.20
2018-05-08T20:45:24.800Z,11.50
2018-05-08T20:47:52.519Z,11.37
2018-05-08T20:50:22.881Z,12.73
2018-05-08T20:52:51.900Z,12.07
2018-05-08T20:55:18.501Z,11.23
2018-05-08T20:57:49.567Z,10.17
2018-05-08T21:00:18.815Z,11.03
2018-05-08T21:02:45.214Z,10.43
2018-05-08T21:05:11.613Z,10.97
2018-05-08T21:07:38.016Z,12.27
2018-05-08T21:10:04.418Z,11.87
2018-05-08T21:12:31.552Z,11.90
2018-05-08T21:14:57.947Z,12.13
2018-05-08T21:17:24.405Z,11.13
2018-05-08T21:19:50.873Z,10.60
2018-05-08T21:22:18.024Z,10.07
2018-05-08T21:24:45.192Z,10.83
2018-05-08T21:27:13.431Z,11.93
2018-05-08T21:29:47.832Z,8.90
2018-05-08T21:32:14.423Z,11.00
2018-05-08T21:34:44.502Z,10.00
2018-05-08T21:37:11.639Z,10.10
2018-05-08T21:39:41.268Z,11.77
2018-05-08T21:42:07.638Z,10.80
2018-05-08T21:44:34.034Z,10.40
2018-05-08T21:47:00.423Z,12.27
2018-05-08T21:49:30.584Z,11.63
2018-05-08T21:51:57.264Z,12.17
2018-05-08T21:54:23.652Z,9.43
2018-05-08T21:56:50.081Z,11.13
2018-05-08T21:59:16.473Z,9.50
2018-05-08T22:01:42.955Z,9.40
2018-05-08T22:04:11.602Z,8.33
2018-05-08T22:06:43.259Z,9.07
2018-05-08T22:09:09.758Z,8.70
2018-05-08T22:11:36.845Z,8.10
2018-05-08T22:14:03.318Z,9.47
2018-05-08T22:16:30.469Z,11.20
2018-05-08T22:18:58.235Z,10.47
2018-05-08T22:21:27.164Z,10.13
2018-05-08T22:23:55.311Z,9.30
2018-05-08T22:26:22.664Z,9.87
2018-05-08T22:28:52.062Z,10.13
2018-05-08T22:31:21.894Z,10.50
2018-05-08T22:33:49.419Z,10.07
2018-05-08T22:36:16.507Z,7.77
2018-05-08T22:38:46.599Z,12.47
2018-05-08T22:41:18.815Z,11.23
2018-05-08T22:43:47.582Z,11.83
2018-05-08T22:46:14.014Z,9.57
2018-05-08T22:48:41.253Z,9.17
2018-05-08T22:51:09.653Z,8.50
2018-05-08T22:53:36.104Z,8.43
2018-05-08T22:56:02.568Z,6.50
2018-05-08T22:58:28.955Z,7.40
2018-05-08T23:00:55.337Z,8.90
2018-05-08T23:16:21.421Z,11.13
2018-05-08T23:18:47.887Z,9.67
2018-05-08T23:21:15.232Z,7.53
2018-05-08T23:23:42.799Z,10.47
2018-05-08T23:26:10.074Z,7.37
2018-05-08T23:28:36.484Z,10.17
2018-05-08T23:31:02.880Z,10.10
2018-05-08T23:33:29.283Z,9.83
2018-05-08T23:35:57.723Z,11.77
2018-05-08T23:38:24.190Z,9.73
2018-05-08T23:40:50.589Z,8.73
2018-05-08T23:43:16.985Z,11.60
2018-05-08T23:45:43.386Z,11.30
2018-05-08T23:48:10.519Z,13.23
2018-05-08T23:50:37.821Z,10.10
2018-05-08T23:53:04.265Z,8.50
2018-05-08T23:55:30.678Z,8.50
2018-05-08T23:57:57.094Z,7.50
